createdAt,value
2022-09-18T00:01:48.104Z,11.00
2022-09-18T00:05:30.375Z,10.90
2022-09-18T00:08:15.862Z,11.00
2022-09-18T00:11:09.794Z,11.10
2022-09-18T00:18:51.603Z,11.20
2022-09-18T00:21:41.538Z,11.10
2022-09-18T04:30:53.114Z,11.60
2022-09-18T04:33:38.619Z,11.60
2022-09-18T04:36:24.424Z,11.60
2022-09-18T04:39:09.923Z,11.60
2022-09-18T04:41:55.631Z,11.60
2022-09-18T04:44:41.307Z,11.60
2022-09-18T04:47:26.802Z,11.60
2022-09-18T04:50:12.582Z,11.60
2022-09-18T04:52:57.824Z,11.60
2022-09-18T04:55:44.764Z,11.60
2022-09-18T04:58:30.166Z,11.60
2022-09-18T05:01:15.710Z,11.60
2022-09-18T05:04:01.171Z,11.60
2022-09-18T05:06:46.737Z,11.60
2022-09-18T05:09:32.003Z,11.60
2022-09-18T05:12:17.789Z,11.60
2022-09-18T05:15:03.515Z,11.60
2022-09-18T05:17:48.954Z,11.70
2022-09-18T05:20:35.627Z,11.70
2022-09-18T05:23:21.599Z,11.70
2022-09-18T05:30:08.231Z,11.70
2022-09-18T05:33:13.060Z,11.60
2022-09-18T05:35:58.759Z,11.60
2022-09-18T05:38:45.659Z,11.60
2022-09-18T05:41:30.786Z,11.60
2022-09-18T05:44:17.398Z,11.60
2022-09-18T05:47:02.819Z,11.60
2022-09-18T05:49:48.373Z,11.60
2022-09-18T05:52:33.830Z,11.60
2022-09-18T05:55:19.419Z,11.60
2022-09-18T05:58:06.972Z,11.60
2022-09-18T06:00:52.487Z,11.50
2022-09-18T06:03:37.810Z,11.50
2022-09-18T06:06:23.199Z,11.50
2022-09-18T06:09:08.638Z,11.50
2022-09-18T06:11:54.216Z,11.50
2022-09-18T06:14:39.690Z,11.50
2022-09-18T06:17:25.178Z,11.50
2022-09-18T06:20:11.226Z,11.50
2022-09-18T06:23:01.177Z,11.50
2022-09-18T06:30:49.397Z,11.50
2022-09-18T06:33:36.297Z,11.50
2022-09-18T06:36:21.902Z,11.40
2022-09-18T06:39:08.055Z,11.50
2022-09-18T06:41:53.589Z,11.50
2022-09-18T06:44:39.316Z,11.60
2022-09-18T06:47:24.674Z,11.60
2022-09-18T06:50:10.337Z,11.70
2022-09-18T06:53:00.674Z,11.70
2022-09-18T06:55:48.278Z,11.70
2022-09-18T06:58:51.885Z,11.80
2022-09-18T07:01:37.750Z,11.70
2022-09-18T07:04:23.185Z,11.60
2022-09-18T07:07:09.016Z,11.60
2022-09-18T07:09:54.556Z,11.50
2022-09-18T07:12:40.145Z,11.60
2022-09-18T07:15:27.238Z,11.60
2022-09-18T07:18:12.657Z,11.60
2022-09-18T07:21:01.600Z,11.70
2022-09-18T07:23:47.613Z,11.70
2022-09-18T07:31:30.606Z,11.90
2022-09-18T07:34:16.426Z,11.70
2022-09-18T07:37:01.886Z,11.80
2022-09-18T07:39:47.963Z,11.80
2022-09-18T07:42:33.282Z,11.90
2022-09-18T07:45:20.176Z,12.00
2022-09-18T07:48:06.887Z,12.10
2022-09-18T07:50:55.843Z,12.10
2022-09-18T07:53:41.438Z,12.30
2022-09-18T07:56:26.568Z,12.40
2022-09-18T07:59:12.072Z,12.50
2022-09-18T08:01:58.097Z,12.50
2022-09-18T08:04:43.430Z,12.60
2022-09-18T08:07:28.946Z,12.60
2022-09-18T08:10:14.650Z,12.70
2022-09-18T08:12:59.961Z,12.80
2022-09-18T08:15:45.255Z,12.90
2022-09-18T08:18:30.845Z,13.00
2022-09-18T08:21:16.510Z,13.00
2022-09-18T08:24:02.535Z,13.10
2022-09-18T08:31:51.866Z,13.20
2022-09-18T08:37:37.078Z,13.30
2022-09-18T08:40:48.212Z,13.30
2022-09-18T08:43:34.411Z,13.30
2022-09-18T08:46:42.606Z,13.40
2022-09-18T08:49:48.994Z,13.40
2022-09-18T08:52:40.803Z,13.50
2022-09-18T08:55:34.951Z,13.50
2022-09-18T08:58:30.924Z,13.60
2022-09-18T09:01:18.981Z,13.70
2022-09-18T09:04:12.531Z,13.80
2022-09-18T09:07:24.251Z,13.90
2022-09-18T09:10:54.513Z,14.00
2022-09-18T09:13:49.458Z,14.00
2022-09-18T09:16:38.462Z,14.00
2022-09-18T09:19:50.478Z,14.00
2022-09-18T09:22:48.141Z,14.20
2022-09-18T09:25:44.558Z,14.30
2022-09-18T09:28:49.988Z,14.30
2022-09-18T09:31:44.648Z,14.10
2022-09-18T09:34:36.901Z,14.20
2022-09-18T09:37:33.186Z,14.20
2022-09-18T09:40:32.702Z,14.50
2022-09-18T09:43:34.860Z,14.50
2022-09-18T09:46:46.486Z,14.60
2022-09-18T09:49:45.588Z,14.60
2022-09-18T09:52:31.831Z,14.70
2022-09-18T09:55:24.784Z,14.70
2022-09-18T09:58:17.984Z,14.80
2022-09-18T10:01:18.596Z,14.80
2022-09-18T10:04:40.287Z,14.90
2022-09-18T10:07:35.894Z,14.90
2022-09-18T10:10:35.995Z,14.80
2022-09-18T10:13:32.213Z,14.70
2022-09-18T10:16:33.859Z,14.80
2022-09-18T10:19:22.191Z,14.90
2022-09-18T10:22:12.763Z,14.90
2022-09-18T10:25:07.502Z,14.90
2022-09-18T10:32:01.512Z,15.00
2022-09-18T10:37:59.337Z,14.80
2022-09-18T10:40:44.593Z,14.80
2022-09-18T10:43:30.411Z,14.90
2022-09-18T10:46:22.361Z,14.90
2022-09-18T10:49:20.640Z,14.70
2022-09-18T10:52:23.261Z,14.70
2022-09-18T10:55:15.988Z,14.60
2022-09-18T10:58:06.186Z,14.60
2022-09-18T11:01:01.689Z,14.60
2022-09-18T11:03:58.687Z,14.60
2022-09-18T11:06:46.532Z,14.60
2022-09-18T11:09:41.778Z,14.70
2022-09-18T11:12:27.310Z,14.60
2022-09-18T11:15:17.158Z,14.40
2022-09-18T11:18:06.549Z,14.50
2022-09-18T11:20:53.990Z,14.50
2022-09-18T11:23:41.719Z,14.60
2022-09-18T11:26:28.832Z,14.50
2022-09-18T11:29:23.791Z,14.50
2022-09-18T11:32:16.767Z,14.40
2022-09-18T11:35:11.264Z,14.40
2022-09-18T11:38:01.239Z,14.30
2022-09-18T11:40:56.031Z,14.30
2022-09-18T11:43:43.686Z,14.40
2022-09-18T11:46:58.780Z,14.40
2022-09-18T11:49:46.263Z,14.40
2022-09-18T11:52:40.430Z,14.40
2022-09-18T11:55:46.861Z,14.50
2022-09-18T11:58:53.806Z,14.70
2022-09-18T12:01:45.735Z,14.70
2022-09-18T12:04:44.539Z,14.70
2022-09-18T12:07:42.490Z,14.80
2022-09-18T12:10:46.361Z,14.80
2022-09-18T12:13:49.076Z,14.70
2022-09-18T12:16:41.339Z,14.70
2022-09-18T12:19:48.124Z,14.70
2022-09-18T12:22:45.410Z,14.70
2022-09-18T12:25:46.030Z,14.60
2022-09-18T12:29:28.090Z,14.60
2022-09-18T12:32:46.369Z,14.70
2022-09-18T12:35:37.609Z,14.90
2022-09-18T12:38:45.126Z,14.90
2022-09-18T12:41:46.034Z,14.90
2022-09-18T12:44:33.981Z,14.90
2022-09-18T12:47:37.120Z,15.00
2022-09-18T12:50:34.525Z,15.00
2022-09-18T12:53:57.671Z,14.90
2022-09-18T12:57:06.872Z,14.90
2022-09-18T13:00:12.504Z,14.80
2022-09-18T13:03:31.197Z,14.80
2022-09-18T13:06:22.650Z,14.80
2022-09-18T13:09:23.807Z,14.80
2022-09-18T13:12:24.351Z,14.80
2022-09-18T13:15:21.747Z,14.80
2022-09-18T13:18:25.896Z,14.80
2022-09-18T13:21:33.746Z,14.80
2022-09-18T13:24:45.575Z,14.90
2022-09-18T13:27:31.906Z,14.90
2022-09-18T13:30:26.523Z,14.90
2022-09-18T13:33:26.663Z,15.00
2022-09-18T13:36:12.093Z,15.10
2022-09-18T13:39:07.881Z,15.10
2022-09-18T13:41:56.278Z,15.20
2022-09-18T13:44:41.958Z,15.30
2022-09-18T13:47:29.426Z,15.30
2022-09-18T13:50:18.608Z,15.20
2022-09-18T13:53:05.253Z,15.00
2022-09-18T13:55:50.807Z,15.00
2022-09-18T13:58:50.014Z,14.90
2022-09-18T14:01:35.445Z,14.90
2022-09-18T14:04:39.404Z,14.90
2022-09-18T14:07:42.293Z,14.90
2022-09-18T14:10:54.918Z,14.90
2022-09-18T14:13:55.433Z,14.90
2022-09-18T14:16:43.683Z,14.80
2022-09-18T14:19:32.346Z,14.80
2022-09-18T14:27:01.729Z,14.70
2022-09-18T14:37:47.651Z,14.70
2022-09-18T14:40:33.925Z,14.70
2022-09-18T14:43:22.000Z,14.70
2022-09-18T14:46:18.216Z,14.60
2022-09-18T14:49:03.483Z,14.50
2022-09-18T14:52:03.468Z,14.50
2022-09-18T14:54:52.005Z,14.60
2022-09-18T14:57:45.699Z,14.60
2022-09-18T15:00:33.606Z,14.50
2022-09-18T15:03:44.225Z,14.50
2022-09-18T15:06:50.250Z,14.40
2022-09-18T15:09:35.732Z,14.30
2022-09-18T15:12:23.987Z,14.20
2022-09-18T15:15:29.122Z,14.10
2022-09-18T15:18:25.148Z,14.00
2022-09-18T15:21:21.809Z,14.00
2022-09-18T15:24:15.739Z,14.00
2022-09-18T15:27:04.141Z,14.00
2022-09-18T15:30:45.856Z,13.90
2022-09-18T15:33:33.586Z,13.90
2022-09-18T15:36:34.484Z,13.80
2022-09-18T15:39:36.086Z,13.80
2022-09-18T15:42:32.249Z,13.80
2022-09-18T15:45:22.114Z,13.70
2022-09-18T15:48:33.966Z,13.80
2022-09-18T15:51:34.167Z,13.80
2022-09-18T15:54:20.047Z,13.70
2022-09-18T15:57:05.432Z,13.80
2022-09-18T15:59:55.108Z,13.80
2022-09-18T16:02:40.408Z,13.80
2022-09-18T16:05:30.477Z,13.80
2022-09-18T16:08:21.096Z,13.70
2022-09-18T16:11:07.151Z,13.70
2022-09-18T16:13:52.531Z,13.60
2022-09-18T16:16:37.897Z,13.40
2022-09-18T16:19:23.514Z,13.30
2022-09-18T16:22:11.100Z,13.20
2022-09-18T16:24:57.659Z,13.20
2022-09-18T16:27:47.908Z,13.00
2022-09-18T16:30:33.704Z,12.90
2022-09-18T16:33:22.557Z,12.90
2022-09-18T16:36:16.389Z,12.90
2022-09-18T16:39:05.257Z,12.90
2022-09-18T16:41:51.103Z,12.80
2022-09-18T16:44:38.586Z,12.70
2022-09-18T16:47:25.653Z,12.60
2022-09-18T16:50:11.629Z,12.60
2022-09-18T16:53:01.375Z,12.50
2022-09-18T16:55:51.290Z,12.40
2022-09-18T16:58:39.034Z,12.30
2022-09-18T17:01:24.920Z,12.30
2022-09-18T17:04:10.345Z,12.30
2022-09-18T17:06:55.857Z,12.20
2022-09-18T17:09:41.340Z,12.10
2022-09-18T17:12:27.127Z,12.00
2022-09-18T17:15:12.474Z,11.90
2022-09-18T17:17:57.920Z,11.90
2022-09-18T17:20:43.151Z,11.80
2022-09-18T17:23:30.644Z,11.70
2022-09-18T17:26:15.730Z,11.70
2022-09-18T17:29:01.101Z,11.70
2022-09-18T17:36:43.294Z,11.50
2022-09-18T17:39:29.097Z,11.50
2022-09-18T17:42:14.957Z,11.40
2022-09-18T17:45:00.367Z,11.30
2022-09-18T17:47:50.841Z,11.30
2022-09-18T17:50:36.296Z,11.20
2022-09-18T17:53:21.661Z,11.20
2022-09-18T17:56:09.908Z,11.20
2022-09-18T17:59:00.165Z,11.10
2022-09-18T18:01:47.238Z,11.10
2022-09-18T18:04:32.931Z,11.10
2022-09-18T18:07:18.237Z,11.10
2022-09-18T18:10:04.199Z,11.00
2022-09-18T18:12:50.741Z,11.10
2022-09-18T18:15:36.808Z,11.10
2022-09-18T18:18:22.375Z,11.00
2022-09-18T18:21:08.173Z,11.00
2022-09-18T18:24:02.152Z,11.00
2022-09-18T18:26:48.574Z,11.00
2022-09-18T18:29:34.647Z,10.90
2022-09-18T18:33:16.495Z,11.00
2022-09-18T18:36:11.103Z,11.00
2022-09-18T18:38:59.234Z,10.90
2022-09-18T18:41:44.956Z,11.00
2022-09-18T18:44:30.507Z,11.00
2022-09-18T18:47:18.186Z,11.00
2022-09-18T18:50:03.794Z,11.00
2022-09-18T18:52:49.350Z,10.90
2022-09-18T18:55:35.404Z,10.90
2022-09-18T18:58:20.794Z,10.90
2022-09-18T19:01:08.225Z,10.90
2022-09-18T19:03:57.165Z,11.00
2022-09-18T19:06:43.967Z,10.90
2022-09-18T19:09:30.826Z,11.00
2022-09-18T19:12:21.789Z,11.00
2022-09-18T19:15:07.314Z,11.00
2022-09-18T19:17:54.275Z,11.00
2022-09-18T19:20:40.079Z,11.00
2022-09-18T19:23:25.375Z,10.90
2022-09-18T19:26:11.472Z,10.90
2022-09-18T19:29:04.790Z,10.80
2022-09-18T19:31:50.924Z,10.70
2022-09-18T19:34:37.044Z,10.50
2022-09-18T19:37:22.272Z,10.50
2022-09-18T19:40:08.248Z,10.40
2022-09-18T19:42:58.494Z,10.20
2022-09-18T19:45:48.404Z,10.10
2022-09-18T19:48:34.564Z,9.90
2022-09-18T19:51:20.673Z,9.90
2022-09-18T19:54:06.003Z,9.80
2022-09-18T19:56:52.134Z,9.80
2022-09-18T19:59:37.287Z,9.70
2022-09-18T20:02:24.516Z,9.70
2022-09-18T20:05:10.856Z,9.70
2022-09-18T20:07:56.307Z,9.70
2022-09-18T20:10:41.588Z,9.70
2022-09-18T20:13:27.617Z,9.60
2022-09-18T20:16:13.274Z,9.60
2022-09-18T20:18:58.848Z,9.60
2022-09-18T20:21:44.591Z,9.60
2022-09-18T20:24:30.996Z,9.60
2022-09-18T20:27:16.348Z,9.50
2022-09-18T20:30:03.097Z,9.50
2022-09-18T20:37:32.888Z,9.40
2022-09-18T20:40:18.172Z,9.50
2022-09-18T20:43:04.385Z,9.40
2022-09-18T20:46:00.985Z,9.40
2022-09-18T20:48:57.337Z,9.30
2022-09-18T20:51:42.669Z,9.30
2022-09-18T20:54:28.211Z,9.30
2022-09-18T20:57:14.623Z,9.20
2022-09-18T21:00:00.233Z,9.20
2022-09-18T21:02:50.947Z,9.10
2022-09-18T21:05:37.004Z,9.10
2022-09-18T21:08:22.569Z,9.10
2022-09-18T21:11:08.084Z,9.10
2022-09-18T21:13:56.585Z,9.00
2022-09-18T21:16:43.208Z,9.10
2022-09-18T21:19:28.521Z,9.10
2022-09-18T21:22:14.270Z,9.10
2022-09-18T21:24:59.699Z,9.00
2022-09-18T21:27:44.934Z,9.10
2022-09-18T21:30:30.579Z,9.00
2022-09-18T21:34:12.757Z,9.00
2022-09-18T21:36:59.964Z,8.90
2022-09-18T21:39:45.448Z,8.80
2022-09-18T21:42:31.035Z,8.80
2022-09-18T21:45:19.498Z,8.80
2022-09-18T21:48:05.161Z,8.70
2022-09-18T21:50:50.782Z,8.60
2022-09-18T21:53:40.363Z,8.60
2022-09-18T21:56:26.072Z,8.50
2022-09-18T21:59:12.738Z,8.50
2022-09-18T22:02:13.920Z,8.50
2022-09-18T22:05:01.139Z,8.50
2022-09-18T22:07:46.812Z,8.50
2022-09-18T22:10:35.179Z,8.50
2022-09-18T22:13:20.586Z,8.40
2022-09-18T22:16:06.463Z,8.40
2022-09-18T22:18:53.196Z,8.40
2022-09-18T22:21:40.501Z,8.40
2022-09-18T22:24:27.600Z,8.50
2022-09-18T22:27:13.137Z,8.50
2022-09-18T22:29:58.594Z,8.50
2022-09-18T22:32:44.179Z,8.40
2022-09-18T22:36:26.281Z,8.50
2022-09-18T22:39:13.062Z,8.50
2022-09-18T22:45:09.746Z,8.40
2022-09-18T22:47:55.170Z,8.30
2022-09-18T22:50:40.947Z,8.30
2022-09-18T22:53:26.790Z,8.30
2022-09-18T22:56:14.208Z,8.20
2022-09-18T22:59:02.067Z,8.30
2022-09-18T23:01:51.031Z,8.20
2022-09-18T23:04:36.788Z,8.20
2022-09-18T23:07:22.225Z,8.20
2022-09-18T23:10:08.240Z,8.20
2022-09-18T23:12:53.660Z,8.10
2022-09-18T23:15:39.057Z,8.10
2022-09-18T23:18:24.747Z,8.10
2022-09-18T23:21:12.180Z,8.10
2022-09-18T23:23:58.484Z,8.10
2022-09-18T23:26:46.603Z,8.10
2022-09-18T23:29:31.994Z,8.10
2022-09-18T23:32:17.289Z,8.20
2022-09-18T23:35:59.455Z,8.20
2022-09-18T23:38:45.883Z,8.20
2022-09-18T23:41:34.434Z,8.20
2022-09-18T23:52:45.862Z,8.20
2022-09-18T23:55:31.558Z,8.20
2022-09-18T23:58:17.965Z,8.20
